チュニス の空港の天気 - METARとTAF

チュニス・カルタゴ国際空港 ( DTTA / TUN ) - チュニジア チュニス
飛行場実況気象(Metar)
観測時間04/21 17:30 CET (04/21 16:30 UTC)
風向・風速東南東 8m/s 瞬間風速15m/s
視程8000m
天気現象
全天の8割程度の雲 雲底高度 610m
気温18℃
湿度73%
気圧1005hPa
METARDTTA 211630Z 12015G29KT 070V160 8000 BKN020 18/13 Q1005
過去の天気等 Google飛行場航空写真 Wunderground天気予報

過去48時間のMETAR

飛行場予報(TAF)
発表時間: 4/21 12:00 CET (4/21 11:00 UTC)
予報対象時間: 21日13時 CET ~ 22日13時 CET
風向・風速東南東 10m/s 瞬間風速 15m/s
視程7000m
全天の8割程度の雲 雲底高度 610m
21日19時 CET ~ 22日11時 CET に一時的に
風向・風速東南東 15m/s 瞬間風速 23m/s
視程4000m
天気現象スコール
少しの雲 雲底高度 300m
TAF DTTA 211100Z 2112/2212 12019G30KT 7000 BKN020
TEMPO 2118/2210 12030G45KT 4000 SQ FEW010